Time;durP1;ratioP1;P1;durP2;ratioP2;P2;SDS_P1;SDS_P2;PMS_P1;PMS_P2;Temp;Humidity;BMP_temperature;BMP_pressure;BME280_temperature;BME280_humidity;BME280_pressure;Samples;Min_cycle;Max_cycle;Signal;HPM_P1;HPM_P2
2023/07/19 00:01:59;;;;;;;;;;;;;;;24.79;53.76;100710.44;7402395;19;1867;-41
2023/07/19 00:04:27;;;;;;;;;;;;;;;24.94;53.59;100722.19;7400615;19;1863;-41
2023/07/19 00:06:57;;;;;;;;;;;;;;;24.90;53.28;100714.63;7402030;19;1381;-41
2023/07/19 00:09:26;;;;;;;;;;;;;;;24.78;53.70;100719.56;7403148;19;1473;-41
2023/07/19 00:11:54;;;;;;;;;;;;;;;24.94;53.20;100710.53;7401664;19;1191;-41
2023/07/19 00:14:22;;;;;;;;;;;;;;;25.11;52.81;100725.69;7401887;19;1198;-41
2023/07/19 00:16:53;;;;;;;;;;;;;;;25.13;52.42;100712.81;7401146;19;1614;-41
2023/07/19 00:19:22;;;;;;;;;;;;;;;24.89;53.24;100731.84;7399433;19;1644;-41
2023/07/19 00:21:50;;;;;;;;;;;;;;;24.78;53.47;100741.19;7401238;19;1448;-41
2023/07/19 00:24:19;;;;;;;;;;;;;;;24.90;53.68;100726.28;7398322;19;1859;-41
2023/07/19 00:26:48;;;;;;;;;;;;;;;24.63;53.42;100651.88;7401911;19;1153;-41
2023/07/19 00:29:16;;;;;;;;;;;;;;;25.01;53.50;100731.31;7400932;19;1690;-41
2023/07/19 00:31:44;;;;;;;;;;;;;;;24.96;53.90;100722.03;7402454;19;1555;-41
2023/07/19 00:34:15;;;;;;;;;;;;;;;24.89;53.87;100730.00;7402751;19;1169;-41
2023/07/19 00:36:44;;;;;;;;;;;;;;;24.87;53.91;100723.94;7401585;19;1252;-41
2023/07/19 00:39:12;;;;;;;;;;;;;;;24.91;54.02;100717.16;7402046;19;1488;-41
2023/07/19 00:41:40;;;;;;;;;;;;;;;24.87;54.14;100717.66;7401761;19;1615;-41
2023/07/19 00:44:08;;;;;;;;;;;;;;;24.83;54.11;100725.31;7399754;19;1857;-41
2023/07/19 00:46:37;;;;;;;;;;;;;;;25.27;53.26;100719.38;7400762;19;1718;-41
2023/07/19 00:49:05;;;;;;;;;;;;;;;25.14;53.32;100702.81;7400585;19;1442;-41
2023/07/19 00:51:36;;;;;;;;;;;;;;;25.01;53.80;100709.66;7401236;19;1460;-41
2023/07/19 00:54:05;;;;;;;;;;;;;;;24.95;54.05;100715.78;7399842;19;1303;-41
2023/07/19 00:56:35;;;;;;;;;;;;;;;25.00;54.35;100723.34;7400054;19;1306;-41
2023/07/19 00:59:04;;;;;;;;;;;;;;;24.95;54.30;100713.06;7401332;19;1568;-41
2023/07/19 01:01:32;;;;;;;;;;;;;;;24.83;54.59;100714.50;7399553;19;1500;-41
2023/07/19 01:04:00;;;;;;;;;;;;;;;24.96;53.86;100716.63;7400218;19;1857;-41
2023/07/19 01:06:29;;;;;;;;;;;;;;;25.01;53.86;100730.47;7400082;19;1488;-41
2023/07/19 01:09:00;;;;;;;;;;;;;;;25.07;53.38;100729.75;7401299;19;1556;-41
2023/07/19 01:11:28;;;;;;;;;;;;;;;24.89;53.59;100718.31;7400232;19;1560;-41
2023/07/19 01:13:56;;;;;;;;;;;;;;;25.09;53.53;100737.69;7400409;19;1476;-41
2023/07/19 01:16:25;;;;;;;;;;;;;;;25.01;53.38;100730.47;7400411;19;1614;-41
2023/07/19 01:18:53;;;;;;;;;;;;;;;25.02;53.47;100726.72;7399532;19;1244;-41
2023/07/19 01:21:21;;;;;;;;;;;;;;;24.76;54.24;100737.84;7399696;19;1488;-41
2023/07/19 01:23:53;;;;;;;;;;;;;;;24.76;54.04;100730.56;7399266;19;1851;-41
2023/07/19 01:26:21;;;;;;;;;;;;;;;24.72;54.39;100728.38;7400548;19;1326;-41
2023/07/19 01:28:49;;;;;;;;;;;;;;;24.85;53.99;100736.78;7400398;19;1496;-41
2023/07/19 01:31:18;;;;;;;;;;;;;;;25.14;53.42;100724.47;7400198;19;1532;-41
2023/07/19 01:33:46;;;;;;;;;;;;;;;25.23;53.73;100722.59;7400400;19;1971;-41
2023/07/19 01:36:14;;;;;;;;;;;;;;;25.23;53.50;100711.75;7400125;19;1675;-41
2023/07/19 01:38:43;;;;;;;;;;;;;;;25.18;53.39;100731.22;7400297;19;1551;-41
2023/07/19 01:41:14;;;;;;;;;;;;;;;25.15;53.20;100720.75;7399235;19;1543;-41
2023/07/19 01:43:42;;;;;;;;;;;;;;;25.23;54.53;100726.16;7398853;19;1843;-41
2023/07/19 01:46:11;;;;;;;;;;;;;;;24.96;54.50;100716.63;7398945;19;1854;-41
2023/07/19 01:48:39;;;;;;;;;;;;;;;24.82;55.04;100726.31;7398668;19;1437;-41
2023/07/19 01:51:08;;;;;;;;;;;;;;;24.80;54.60;100722.94;7399641;19;1493;-41
2023/07/19 01:53:36;;;;;;;;;;;;;;;24.94;54.32;100724.91;7400262;19;1139;-41
2023/07/19 01:56:05;;;;;;;;;;;;;;;24.66;54.82;100740.72;7399401;19;1281;-41
2023/07/19 01:58:35;;;;;;;;;;;;;;;24.52;55.17;100726.06;7398842;19;1443;-41
2023/07/19 02:01:04;;;;;;;;;;;;;;;24.48;55.34;100719.28;7398856;19;1548;-41
2023/07/19 02:03:32;;;;;;;;;;;;;;;24.55;55.14;100723.03;7397828;19;1857;-41
2023/07/19 02:06:00;;;;;;;;;;;;;;;24.48;55.11;100735.50;7397248;19;1519;-41
2023/07/19 02:08:29;;;;;;;;;;;;;;;24.50;55.09;100729.94;7398129;19;1497;-41
2023/07/19 02:10:57;;;;;;;;;;;;;;;24.52;55.06;100736.03;7395217;19;1251;-41
2023/07/19 02:13:25;;;;;;;;;;;;;;;24.47;55.15;100739.25;7397597;19;1248;-41
2023/07/19 02:15:56;;;;;;;;;;;;;;;24.47;55.18;100736.53;7397262;19;1623;-41
2023/07/19 02:18:24;;;;;;;;;;;;;;;24.47;55.30;100727.56;7397755;19;1447;-41
2023/07/19 02:20:55;;;;;;;;;;;;;;;24.52;55.35;100727.94;7396482;19;1561;-41
2023/07/19 02:23:23;;;;;;;;;;;;;;;24.64;55.01;100723.00;7397701;19;1849;-41
2023/07/19 02:25:52;;;;;;;;;;;;;;;24.79;54.84;100732.09;7398769;19;1256;-41
2023/07/19 02:28:20;;;;;;;;;;;;;;;24.77;54.94;100739.50;7397415;19;1528;-41
2023/07/19 02:30:49;;;;;;;;;;;;;;;24.66;55.06;100737.19;7398482;19;1559;-41
2023/07/19 02:33:20;;;;;;;;;;;;;;;24.67;55.17;100736.16;7398576;19;1459;-41
2023/07/19 02:35:54;;;;;;;;;;;;;;;24.68;54.96;100724.34;7398758;19;1539;-41
2023/07/19 02:38:22;;;;;;;;;;;;;;;24.58;55.38;100736.19;7397076;19;1531;-41
2023/07/19 02:40:51;;;;;;;;;;;;;;;24.42;55.61;100733.50;7397700;19;1549;-41
2023/07/19 02:43:19;;;;;;;;;;;;;;;24.36;55.65;100735.03;7397328;19;1857;-41
2023/07/19 02:45:47;;;;;;;;;;;;;;;24.44;55.51;100731.47;7397411;19;1147;-41
2023/07/19 02:48:16;;;;;;;;;;;;;;;24.38;55.88;100740.25;7398562;19;1050;-41
2023/07/19 02:50:49;;;;;;;;;;;;;;;24.39;55.91;100739.22;7397563;19;1448;-41
2023/07/19 02:53:17;;;;;;;;;;;;;;;24.88;54.93;100741.00;7396890;19;1865;-41
2023/07/19 02:55:46;;;;;;;;;;;;;;;24.90;54.49;100742.50;7397181;19;1289;-41
2023/07/19 02:58:15;;;;;;;;;;;;;;;24.92;54.40;100737.75;7396967;19;1365;-41
2023/07/19 03:00:43;;;;;;;;;;;;;;;24.83;54.29;100754.19;7397606;19;1559;-41
2023/07/19 03:03:12;;;;;;;;;;;;;;;24.48;55.42;100753.59;7397336;19;1870;-41
2023/07/19 03:05:42;;;;;;;;;;;;;;;24.47;55.43;100749.19;7396319;19;1255;-41
2023/07/19 03:08:13;;;;;;;;;;;;;;;24.52;55.41;100742.28;7396844;19;1519;-41
2023/07/19 03:10:41;;;;;;;;;;;;;;;24.47;55.55;100736.53;7397277;19;1481;-41
2023/07/19 03:13:10;;;;;;;;;;;;;;;24.42;55.87;100744.31;7396084;19;1400;-41
2023/07/19 03:15:38;;;;;;;;;;;;;;;24.40;55.57;100740.94;7396584;19;1555;-41
2023/07/19 03:18:07;;;;;;;;;;;;;;;24.37;56.05;100749.38;7394450;19;2035;-41
2023/07/19 03:20:35;;;;;;;;;;;;;;;24.28;55.94;100750.41;7393629;19;1382;-41
2023/07/19 03:23:03;;;;;;;;;;;;;;;24.32;55.95;100741.78;7395830;19;1397;-41
2023/07/19 03:25:34;;;;;;;;;;;;;;;24.33;56.21;100739.94;7394586;19;1853;-41
2023/07/19 03:28:03;;;;;;;;;;;;;;;24.35;56.23;100748.69;7394946;19;1457;-41
2023/07/19 03:30:31;;;;;;;;;;;;;;;24.41;56.01;100745.31;7395848;19;1664;-42
2023/07/19 03:32:59;;;;;;;;;;;;;;;24.46;56.05;100732.13;7396486;19;1228;-41
2023/07/19 03:35:27;;;;;;;;;;;;;;;24.53;56.08;100751.22;7396432;19;1594;-41
2023/07/19 03:37:56;;;;;;;;;;;;;;;24.54;56.04;100750.22;7396210;19;1603;-41
2023/07/19 03:40:24;;;;;;;;;;;;;;;24.53;55.81;100754.81;7395662;19;1433;-41
2023/07/19 03:42:55;;;;;;;;;;;;;;;24.58;56.08;100740.75;7396930;19;1109;-41
2023/07/19 03:45:27;;;;;;;;;;;;;;;24.57;56.00;100742.63;7395533;19;2150;-41
2023/07/19 03:47:55;;;;;;;;;;;;;;;24.47;56.46;100730.28;7395531;19;1716;-41
2023/07/19 03:50:23;;;;;;;;;;;;;;;24.38;56.69;100730.28;6870475;19;10000539;-41
2023/07/19 03:52:52;;;;;;;;;;;;;;;24.48;56.13;100746.31;7387845;19;1541;-41
2023/07/19 03:55:20;;;;;;;;;;;;;;;24.54;56.11;100761.88;7387857;19;1617;-41
2023/07/19 03:57:49;;;;;;;;;;;;;;;24.60;56.26;100753.06;7387463;19;1517;-41
2023/07/19 04:00:20;;;;;;;;;;;;;;;24.70;56.11;100750.19;7388499;19;1489;-41
2023/07/19 04:02:48;;;;;;;;;;;;;;;24.68;55.94;100736.00;7387403;19;1549;-41
2023/07/19 04:05:17;;;;;;;;;;;;;;;24.73;55.94;100741.72;7387144;19;1857;-41
2023/07/19 04:07:45;;;;;;;;;;;;;;;24.60;56.00;100736.84;7387057;19;1481;-41
2023/07/19 04:10:13;;;;;;;;;;;;;;;24.52;56.33;100757.69;7388801;19;1475;-41
2023/07/19 04:12:41;;;;;;;;;;;;;;;24.57;55.92;100741.75;7387701;19;1463;-41
2023/07/19 04:15:10;;;;;;;;;;;;;;;24.74;54.13;100729.06;7388562;19;1513;-41
2023/07/19 04:17:41;;;;;;;;;;;;;;;24.83;53.26;100746.94;7387508;19;1577;-41
2023/07/19 04:20:10;;;;;;;;;;;;;;;24.92;52.27;100739.63;7385585;19;1757;-41
2023/07/19 04:22:38;;;;;;;;;;;;;;;24.89;52.72;100732.72;7387655;19;1477;-41
2023/07/19 04:25:07;;;;;;;;;;;;;;;24.80;53.79;100728.34;7384882;19;1992;-41
2023/07/19 04:27:35;;;;;;;;;;;;;;;24.85;54.58;100734.09;7387895;19;1572;-41
2023/07/19 04:30:03;;;;;;;;;;;;;;;24.87;54.18;100728.47;7389107;19;1478;-41
2023/07/19 04:32:32;;;;;;;;;;;;;;;24.92;54.74;100724.22;7396585;19;1393;-41
2023/07/19 04:35:03;;;;;;;;;;;;;;;25.01;54.92;100715.06;7397254;19;1368;-41
2023/07/19 04:37:31;;;;;;;;;;;;;;;24.96;54.89;100714.75;7399953;19;1180;-41
2023/07/19 04:39:59;;;;;;;;;;;;;;;25.16;54.82;100727.84;7400136;19;1880;-41
2023/07/19 04:42:28;;;;;;;;;;;;;;;25.24;55.29;100719.72;7332624;19;13833;-41
2023/07/19 04:44:56;;;;;;;;;;;;;;;25.12;55.91;100710.28;7397888;19;1853;-41
2023/07/19 04:47:25;;;;;;;;;;;;;;;25.08;56.51;100719.78;7399022;19;1474;-41
2023/07/19 04:49:53;;;;;;;;;;;;;;;25.10;56.11;100710.44;7395979;19;1410;-41
2023/07/19 04:52:24;;;;;;;;;;;;;;;25.16;56.19;100711.59;7395441;19;1364;-41
2023/07/19 04:54:52;;;;;;;;;;;;;;;25.27;55.98;100723.91;7397649;19;1535;-41
2023/07/19 04:57:20;;;;;;;;;;;;;;;25.29;56.05;100695.66;7397148;19;1336;-41
2023/07/19 04:59:49;;;;;;;;;;;;;;;25.51;55.51;100699.41;7399307;19;1346;-41
2023/07/19 05:02:17;;;;;;;;;;;;;;;25.40;55.72;100697.94;7392610;19;1769;-41
2023/07/19 05:04:46;;;;;;;;;;;;;;;25.48;56.19;100709.75;7395705;19;1851;-41
2023/07/19 05:07:14;;;;;;;;;;;;;;;25.39;56.37;100709.81;7397206;19;1777;-41
2023/07/19 05:09:45;;;;;;;;;;;;;;;25.39;56.46;100709.81;7395210;19;1387;-41
2023/07/19 05:12:14;;;;;;;;;;;;;;;25.43;56.66;100713.00;7395988;19;1725;-41
2023/07/19 05:14:43;;;;;;;;;;;;;;;25.50;56.35;100705.00;7396454;19;1603;-41
2023/07/19 05:17:11;;;;;;;;;;;;;;;25.60;56.47;100703.75;7393289;19;1397;-42
2023/07/19 05:19:39;;;;;;;;;;;;;;;25.56;56.78;100709.69;7394645;19;1402;-41
2023/07/19 05:22:08;;;;;;;;;;;;;;;25.62;57.01;100703.53;7394872;19;1353;-41
2023/07/19 05:24:36;;;;;;;;;;;;;;;25.57;56.79;100703.28;7394570;19;1860;-42
2023/07/19 05:27:07;;;;;;;;;;;;;;;25.56;57.09;100706.97;7396745;19;1377;-40
2023/07/19 05:29:36;;;;;;;;;;;;;;;25.57;57.23;100708.69;7393827;19;1921;-41
2023/07/19 05:32:05;;;;;;;;;;;;;;;25.61;57.23;100715.41;7394625;19;1476;-41
2023/07/19 05:34:33;;;;;;;;;;;;;;;25.27;57.55;100697.72;7393097;19;1376;-41
2023/07/19 05:37:03;;;;;;;;;;;;;;;24.68;57.52;100702.72;7394688;19;1540;-41
2023/07/19 05:39:32;;;;;;;;;;;;;;;24.21;58.35;100691.66;7394618;19;1482;-42
2023/07/19 05:42:00;;;;;;;;;;;;;;;24.19;58.34;100688.28;7392754;19;1540;-41
2023/07/19 05:44:31;;;;;;;;;;;;;;;24.43;57.54;100694.63;7393389;19;1861;-41
2023/07/19 05:47:00;;;;;;;;;;;;;;;24.38;58.20;100681.63;7393705;19;1682;-41
2023/07/19 05:49:28;;;;;;;;;;;;;;;24.26;58.49;100683.03;7394071;19;1528;-41
2023/07/19 05:51:56;;;;;;;;;;;;;;;24.53;57.72;100687.22;7397620;19;1393;-41
2023/07/19 05:54:25;;;;;;;;;;;;;;;24.27;58.25;100676.59;7398278;19;1399;-42
2023/07/19 05:56:53;;;;;;;;;;;;;;;24.18;59.04;100699.25;7398161;19;1493;-42
2023/07/19 05:59:21;;;;;;;;;;;;;;;24.30;58.19;100697.03;7397487;19;1529;-41
2023/07/19 06:01:52;;;;;;;;;;;;;;;23.55;59.05;100582.00;7397829;19;1548;-41
2023/07/19 06:04:20;;;;;;;;;;;;;;;24.25;58.45;100685.91;7397791;19;1845;-40
2023/07/19 06:06:49;;;;;;;;;;;;;;;24.39;58.53;100687.88;7397782;19;1504;-41
2023/07/19 06:09:18;;;;;;;;;;;;;;;24.09;59.31;100692.16;7396395;19;1377;-42
2023/07/19 06:11:46;;;;;;;;;;;;;;;24.21;59.08;100670.03;7395576;19;1760;-41
2023/07/19 06:14:15;;;;;;;;;;;;;;;24.24;58.85;100673.41;7396301;19;1722;-41
2023/07/19 06:16:43;;;;;;;;;;;;;;;23.99;59.73;100670.75;7395934;19;1675;-41
2023/07/19 06:19:16;;;;;;;;;;;;;;;24.27;58.76;100678.47;7395701;19;1334;-41
2023/07/19 06:21:44;;;;;;;;;;;;;;;24.18;58.81;100670.38;7396767;19;1449;-41
2023/07/19 06:24:12;;;;;;;;;;;;;;;24.06;59.39;100660.94;7397640;19;1556;-41
2023/07/19 06:26:41;;;;;;;;;;;;;;;24.26;58.79;100663.28;7392986;19;1505;-41
2023/07/19 06:29:09;;;;;;;;;;;;;;;24.20;58.95;100689.97;7395861;19;1470;-41
2023/07/19 06:31:37;;;;;;;;;;;;;;;24.20;59.07;100675.63;7391453;19;1352;-41
2023/07/19 06:34:05;;;;;;;;;;;;;;;24.16;58.58;100663.47;7398771;19;1172;-41
2023/07/19 06:36:37;;;;;;;;;;;;;;;24.15;58.38;100670.72;7396764;19;1623;-41
2023/07/19 06:39:05;;;;;;;;;;;;;;;24.06;58.30;100666.34;7394590;19;1587;-41
2023/07/19 06:41:34;;;;;;;;;;;;;;;24.06;58.11;100658.25;7397014;19;1568;-41
2023/07/19 06:44:02;;;;;;;;;;;;;;;24.08;57.81;100688.63;7395460;19;1483;-41
2023/07/19 06:46:30;;;;;;;;;;;;;;;24.01;57.56;100657.91;7394663;19;1854;-41
2023/07/19 06:48:59;;;;;;;;;;;;;;;24.00;57.75;100670.56;7396401;19;1402;-41
2023/07/19 06:51:27;;;;;;;;;;;;;;;23.98;57.60;100653.69;7395961;19;1277;-41
2023/07/19 06:53:58;;;;;;;;;;;;;;;24.08;57.52;100658.91;7394359;19;1408;-41
2023/07/19 06:56:26;;;;;;;;;;;;;;;23.95;57.87;100640.53;7397204;19;1682;-42
2023/07/19 06:58:54;;;;;;;;;;;;;;;23.97;57.89;100651.16;7396530;19;1300;-41
2023/07/19 07:01:22;;;;;;;;;;;;;;;23.89;58.04;100643.06;7396761;19;1623;-42
2023/07/19 07:03:51;;;;;;;;;;;;;;;23.86;57.94;100643.44;7397082;19;1324;-41
2023/07/19 07:06:19;;;;;;;;;;;;;;;23.92;57.89;100665.19;7395129;19;1842;-41
2023/07/19 07:08:47;;;;;;;;;;;;;;;23.87;58.28;100637.00;7395869;19;1333;-42
2023/07/19 07:11:18;;;;;;;;;;;;;;;23.88;60.31;100654.91;7394945;19;1619;-42
2023/07/19 07:13:49;;;;;;;;;;;;;;;23.90;61.37;100644.78;7393991;19;1427;-42
2023/07/19 07:16:18;;;;;;;;;;;;;;;23.85;63.41;100641.72;7395748;19;1560;-42
2023/07/19 07:18:46;;;;;;;;;;;;;;;23.94;63.23;100627.22;7395401;19;1297;-41
2023/07/19 07:21:14;;;;;;;;;;;;;;;24.06;62.99;100644.75;7393552;19;1385;-41
2023/07/19 07:23:43;;;;;;;;;;;;;;;23.92;63.40;100645.44;7392908;19;1490;-41
2023/07/19 07:26:11;;;;;;;;;;;;;;;24.00;64.28;100638.16;7392276;19;1859;-41
2023/07/19 07:28:42;;;;;;;;;;;;;;;24.06;64.84;100657.41;7389631;19;1326;-41
2023/07/19 07:31:11;;;;;;;;;;;;;;;23.96;66.96;100633.28;7393381;19;1855;-40
2023/07/19 07:33:40;;;;;;;;;;;;;;;24.15;66.59;100637.44;7394768;19;1212;-40
2023/07/19 07:36:08;;;;;;;;;;;;;;;24.18;65.28;100645.22;7391944;19;1278;-40
2023/07/19 07:38:37;;;;;;;;;;;;;;;23.97;65.06;100641.22;7391063;19;1556;-41
2023/07/19 07:41:06;;;;;;;;;;;;;;;24.04;64.57;100641.38;7394433;19;1927;-40
2023/07/19 07:43:35;;;;;;;;;;;;;;;24.01;63.38;100653.38;7393138;19;1334;-40
2023/07/19 07:46:06;;;;;;;;;;;;;;;24.00;63.08;100626.53;7392903;19;1865;-40
2023/07/19 07:48:34;;;;;;;;;;;;;;;24.01;62.42;100628.19;7393735;19;1442;-40
2023/07/19 07:51:02;;;;;;;;;;;;;;;23.96;62.30;100627.88;7394253;19;1535;-40
2023/07/19 07:53:31;;;;;;;;;;;;;;;24.02;61.62;100629.91;7394028;19;1201;-40
2023/07/19 07:56:00;;;;;;;;;;;;;;;24.02;61.23;100624.50;7393836;19;1607;-40
2023/07/19 07:58:28;;;;;;;;;;;;;;;24.02;60.62;100633.44;7392983;19;1398;-40
2023/07/19 08:00:56;;;;;;;;;;;;;;;24.01;60.38;100637.16;7393277;19;1254;-40
2023/07/19 08:03:27;;;;;;;;;;;;;;;24.06;60.52;100628.53;7391051;19;1225;-41
2023/07/19 08:05:56;;;;;;;;;;;;;;;24.06;60.86;100633.09;7400449;19;1837;-40
2023/07/19 08:08:24;;;;;;;;;;;;;;;24.05;61.39;100616.03;7400031;19;1956;-40
2023/07/19 08:10:52;;;;;;;;;;;;;;;24.08;60.94;100617.56;7400286;19;1818;-41
2023/07/19 08:13:20;;;;;;;;;;;;;;;23.98;61.15;100617.75;7400039;19;1823;-41
2023/07/19 08:15:49;;;;;;;;;;;;;;;24.01;60.56;100614.69;7401679;19;1234;-41
2023/07/19 08:18:17;;;;;;;;;;;;;;;23.98;60.46;100609.66;7402060;19;1715;-41
2023/07/19 08:20:48;;;;;;;;;;;;;;;24.02;60.22;100611.00;7398047;19;1602;-41
2023/07/19 08:23:16;;;;;;;;;;;;;;;24.01;60.28;100603.88;7401988;19;1812;-41
2023/07/19 08:25:45;;;;;;;;;;;;;;;24.02;60.44;100613.69;7401716;19;1873;-41
2023/07/19 08:28:13;;;;;;;;;;;;;;;24.01;60.56;100604.75;7402312;19;1857;-41
2023/07/19 08:30:41;;;;;;;;;;;;;;;23.97;60.52;100610.66;7397826;19;1815;-40
2023/07/19 08:33:10;;;;;;;;;;;;;;;24.01;60.42;100601.19;7402661;19;1028;-41
2023/07/19 08:35:38;;;;;;;;;;;;;;;24.03;59.96;100607.25;7402626;19;970;-41
2023/07/19 08:38:09;;;;;;;;;;;;;;;23.95;60.00;100600.00;7400964;19;1588;-41
2023/07/19 08:40:40;;;;;;;;;;;;;;;23.94;60.20;100608.31;7399813;19;1476;-40
2023/07/19 08:43:08;;;;;;;;;;;;;;;23.90;60.37;100598.88;7332615;19;14077;-41
2023/07/19 08:45:37;;;;;;;;;;;;;;;23.91;60.66;100603.22;7399466;19;1838;-41
2023/07/19 08:48:06;;;;;;;;;;;;;;;23.93;60.34;100599.34;7400319;19;1723;-41
2023/07/19 08:50:35;;;;;;;;;;;;;;;23.95;60.22;100599.16;7399530;19;1960;-41
2023/07/19 08:53:04;;;;;;;;;;;;;;;23.87;60.39;100602.72;7400146;19;1714;-41
2023/07/19 08:55:35;;;;;;;;;;;;;;;23.88;60.31;100595.50;7397578;19;1727;-41
2023/07/19 08:58:03;;;;;;;;;;;;;;;23.99;60.32;100590.56;7398970;19;1745;-41
2023/07/19 09:00:34;;;;;;;;;;;;;;;24.00;60.10;100591.41;7399895;19;1471;-41
2023/07/19 09:03:02;;;;;;;;;;;;;;;24.01;60.35;100584.97;7400662;19;1071;-41
2023/07/19 09:05:31;;;;;;;;;;;;;;;23.91;60.37;100587.88;7397529;19;1907;-41
2023/07/19 09:08:02;;;;;;;;;;;;;;;23.91;60.39;100592.44;7396914;19;1375;-41
2023/07/19 09:10:30;;;;;;;;;;;;;;;23.98;60.26;100588.88;7399882;19;1617;-41
2023/07/19 09:13:05;;;;;;;;;;;;;;;23.97;60.41;100575.53;7397164;19;1499;-41
2023/07/19 09:15:35;;;;;;;;;;;;;;;23.97;60.86;100576.41;7393984;19;2109;-41
2023/07/19 09:18:04;;;;;;;;;;;;;;;23.93;61.32;100568.78;7398529;19;1492;-40
2023/07/19 09:20:32;;;;;;;;;;;;;;;23.81;61.83;100569.19;7394534;19;1734;-41
2023/07/19 09:23:03;;;;;;;;;;;;;;;23.91;61.47;100565.44;7398733;19;1372;-45
2023/07/19 09:25:31;;;;;;;;;;;;;;;24.02;61.09;100574.00;7399337;19;1856;-41
2023/07/19 09:28:06;;;;;;;;;;;;;;;24.02;61.11;100560.50;7382512;19;1349;-41
2023/07/19 09:30:35;;;;;;;;;;;;;;;23.94;61.14;100554.28;7394608;19;1423;-42
2023/07/19 09:33:03;;;;;;;;;;;;;;;23.88;61.65;100555.81;7396609;19;1405;-40
2023/07/19 09:35:32;;;;;;;;;;;;;;;23.79;61.67;100548.75;7383645;19;2920;-39
2023/07/19 09:38:00;;;;;;;;;;;;;;;23.88;61.74;100541.47;7396545;19;1592;-40
2023/07/19 09:40:29;;;;;;;;;;;;;;;23.88;61.52;100545.03;7362056;19;1318;-40
2023/07/19 09:42:58;;;;;;;;;;;;;;;23.77;61.34;100538.09;7396000;19;2854;-40
2023/07/19 09:45:33;;;;;;;;;;;;;;;23.81;61.03;100534.06;7396894;19;1838;-40
2023/07/19 09:48:02;;;;;;;;;;;;;;;23.63;62.19;100522.59;7398198;19;1805;-40
2023/07/19 09:50:30;;;;;;;;;;;;;;;23.77;62.23;100519.22;7396224;19;1386;-39
2023/07/19 09:53:01;;;;;;;;;;;;;;;23.87;61.80;100535.22;7395358;19;1813;-40
2023/07/19 09:55:29;;;;;;;;;;;;;;;23.89;62.12;100521.53;7395661;19;1382;-40
2023/07/19 09:57:58;;;;;;;;;;;;;;;23.77;62.10;100523.75;7396186;19;1389;-40
2023/07/19 10:00:27;;;;;;;;;;;;;;;23.72;62.58;100523.44;7396629;19;1386;-40
2023/07/19 10:03:00;;;;;;;;;;;;;;;23.81;62.52;100544.88;7397689;19;1534;-44
2023/07/19 10:05:29;;;;;;;;;;;;;;;23.70;62.81;100531.69;7393911;19;1845;-40
2023/07/19 10:08:03;;;;;;;;;;;;;;;23.90;62.34;100509.75;7395952;19;1298;-40
2023/07/19 10:10:37;;;;;;;;;;;;;;;23.72;62.56;100513.47;7398292;19;1456;-39
2023/07/19 10:13:06;;;;;;;;;;;;;;;23.76;62.75;100531.00;7396361;19;1464;-40
2023/07/19 10:15:34;;;;;;;;;;;;;;;23.84;62.85;100495.06;7396970;19;1993;-39
2023/07/19 10:18:12;;;;;;;;;;;;;;;23.87;63.18;100501.97;7398868;19;1584;-40
2023/07/19 10:20:43;;;;;;;;;;;;;;;23.82;63.22;100495.25;7386832;19;1242;-40
2023/07/19 10:23:16;;;;;;;;;;;;;;;23.90;62.88;100499.78;7393468;19;1565;-40
2023/07/19 10:25:47;;;;;;;;;;;;;;;23.82;62.92;100487.16;7386948;19;1855;-40
2023/07/19 10:28:17;;;;;;;;;;;;;;;23.92;62.37;100489.63;7391364;19;1187;-40
2023/07/19 10:30:46;;;;;;;;;;;;;;;23.81;62.45;100501.69;7396214;19;1583;-40
2023/07/19 10:33:17;;;;;;;;;;;;;;;23.85;62.52;100491.34;7395640;19;966;-40
2023/07/19 10:35:45;;;;;;;;;;;;;;;23.89;62.80;100471.06;7392402;19;1838;-40
2023/07/19 10:38:17;;;;;;;;;;;;;;;23.84;63.07;100475.34;7394231;19;1722;-41
2023/07/19 10:40:47;;;;;;;;;;;;;;;23.94;62.31;100462.47;7392717;19;1523;-44
2023/07/19 10:43:15;;;;;;;;;;;;;;;23.92;61.70;100456.41;7395142;19;1258;-43
2023/07/19 10:45:43;;;;;;;;;;;;;;;23.95;61.44;100464.13;7394852;19;1861;-48
2023/07/19 10:48:13;;;;;;;;;;;;;;;23.90;62.15;100466.53;7394503;19;1129;-43
2023/07/19 10:50:44;;;;;;;;;;;;;;;23.87;62.18;100464.16;7394119;19;1031;-44
2023/07/19 10:53:14;;;;;;;;;;;;;;;23.84;62.02;100461.84;7393823;19;1500;-44
2023/07/19 10:55:44;;;;;;;;;;;;;;;23.92;61.67;100448.28;7391989;19;1508;-43
2023/07/19 10:58:13;;;;;;;;;;;;;;;23.92;61.59;100442.91;7392956;19;1132;-44
2023/07/19 11:00:43;;;;;;;;;;;;;;;24.10;60.85;100440.78;7390131;19;1662;-44
2023/07/19 11:03:14;;;;;;;;;;;;;;;23.95;61.28;100437.13;7391177;19;1013;-44
2023/07/19 11:05:48;;;;;;;;;;;;;;;24.07;61.06;100438.41;7391576;19;1565;-44
2023/07/19 11:08:21;;;;;;;;;;;;;;;24.06;60.86;100436.75;7392397;19;1626;-43
2023/07/19 11:10:50;;;;;;;;;;;;;;;23.99;60.70;100441.16;7389188;19;1195;-40
2023/07/19 11:13:19;;;;;;;;;;;;;;;23.87;61.30;100439.88;7391119;19;1727;-40
2023/07/19 11:15:49;;;;;;;;;;;;;;;23.71;61.54;100433.47;7389972;19;1449;-40
2023/07/19 11:18:26;;;;;;;;;;;;;;;23.19;61.87;100347.66;7393133;19;1826;-40
2023/07/19 11:20:57;;;;;;;;;;;;;;;23.78;61.54;100425.56;7390432;19;1614;-40
2023/07/19 11:23:25;;;;;;;;;;;;;;;23.73;61.74;100433.31;7392461;19;1545;-40
2023/07/19 11:25:54;;;;;;;;;;;;;;;23.67;62.06;100428.63;7392430;19;1453;-40
2023/07/19 11:28:38;;;;;;;;;;;;;;;23.60;62.01;100406.88;7392060;19;1536;-40
2023/07/19 11:31:06;;;;;;;;;;;;;;;23.64;62.13;100413.63;7390835;19;1814;-40
2023/07/19 11:33:36;;;;;;;;;;;;;;;23.70;62.35;100423.72;7391377;19;1127;-40
2023/07/19 11:36:10;;;;;;;;;;;;;;;23.76;61.91;100412.22;7386886;19;1907;-40
2023/07/19 11:38:40;;;;;;;;;;;;;;;23.64;62.14;100408.22;7391003;19;1845;-40
2023/07/19 11:41:09;;;;;;;;;;;;;;;23.58;62.17;100420.56;7399206;19;1697;-40
2023/07/19 11:43:45;;;;;;;;;;;;;;;23.61;61.76;100405.84;7398929;19;1592;-40
2023/07/19 11:46:13;;;;;;;;;;;;;;;23.64;61.94;100421.72;7399087;19;1869;-40
2023/07/19 11:48:42;;;;;;;;;;;;;;;23.63;61.94;100399.28;7397489;19;1590;-41
2023/07/19 11:51:12;;;;;;;;;;;;;;;23.66;61.72;100400.78;7395628;19;1778;-41
2023/07/19 11:53:41;;;;;;;;;;;;;;;23.65;61.96;100404.47;7398243;19;1668;-40
2023/07/19 11:56:09;;;;;;;;;;;;;;;23.60;61.87;100402.31;7399105;19;1802;-40
2023/07/19 11:58:38;;;;;;;;;;;;;;;23.69;61.58;100397.72;7396700;19;1869;-41
2023/07/19 12:01:07;;;;;;;;;;;;;;;23.72;61.85;100396.53;7398175;19;1803;-40
2023/07/19 12:03:35;;;;;;;;;;;;;;;23.66;62.00;100392.69;7398236;19;1834;-40
2023/07/19 12:06:03;;;;;;;;;;;;;;;23.76;62.10;100395.19;7400657;19;1804;-41
2023/07/19 12:08:34;;;;;;;;;;;;;;;23.90;61.85;100390.91;7399330;19;1864;-40
2023/07/19 12:11:02;;;;;;;;;;;;;;;23.81;61.83;100388.25;7402093;19;1839;-41
2023/07/19 12:13:31;;;;;;;;;;;;;;;23.71;61.96;100387.59;7400607;19;1913;-40
2023/07/19 12:15:59;;;;;;;;;;;;;;;23.67;62.12;100380.03;7401267;19;1624;-41
2023/07/19 12:18:29;;;;;;;;;;;;;;;23.75;61.83;100386.22;7400208;19;1609;-41
2023/07/19 12:20:58;;;;;;;;;;;;;;;23.74;62.12;100383.72;7397714;19;1554;-41
2023/07/19 12:23:26;;;;;;;;;;;;;;;23.66;62.16;100375.66;7400693;19;1570;-41
2023/07/19 12:25:57;;;;;;;;;;;;;;;23.66;61.96;100363.00;7401149;19;1611;-41
2023/07/19 12:28:25;;;;;;;;;;;;;;;23.76;61.44;100373.56;7396498;19;1850;-40
2023/07/19 12:30:54;;;;;;;;;;;;;;;23.69;61.58;100351.00;7401354;19;1597;-41
2023/07/19 12:33:22;;;;;;;;;;;;;;;23.87;61.54;100361.56;7395057;19;1395;-41
2023/07/19 12:35:50;;;;;;;;;;;;;;;23.79;61.45;100367.84;7396406;19;1872;-41
2023/07/19 12:38:19;;;;;;;;;;;;;;;23.72;61.35;100359.59;7400911;19;1171;-42
2023/07/19 12:40:48;;;;;;;;;;;;;;;23.76;60.98;100358.22;7399590;19;1711;-40
2023/07/19 12:43:19;;;;;;;;;;;;;;;23.67;61.26;100336.84;7397851;19;1858;-40
2023/07/19 12:45:47;;;;;;;;;;;;;;;23.65;61.36;100372.09;7396717;19;2124;-41
2023/07/19 12:48:15;;;;;;;;;;;;;;;23.66;61.16;100349.50;7396056;19;1848;-40
2023/07/19 12:50:44;;;;;;;;;;;;;;;23.75;60.95;100351.13;7397263;19;1709;-40
2023/07/19 12:53:12;;;;;;;;;;;;;;;23.66;60.97;100346.78;7400909;19;1739;-41
2023/07/19 12:55:40;;;;;;;;;;;;;;;23.75;60.88;100344.88;7399183;19;1697;-41